sensor_id;sensor_type;location;lat;lon;timestamp;pressure;altitude;pressure_sealevel;temperature;humidity
4123;BME280;2075;51.062;6.920;2023-01-29T00:02:34;-11667.00;;;-144.48;100.00
4123;BME280;2075;51.062;6.920;2023-01-29T00:05:20;-11667.00;;;-144.48;100.00
4123;BME280;2075;51.062;6.920;2023-01-29T00:08:05;-11667.00;;;-144.48;100.00
4123;BME280;2075;51.062;6.920;2023-01-29T00:10:51;-11667.00;;;-144.48;100.00
4123;BME280;2075;51.062;6.920;2023-01-29T00:13:36;-11667.00;;;-144.48;100.00
4123;BME280;2075;51.062;6.920;2023-01-29T00:16:21;-11667.00;;;-144.48;100.00
4123;BME280;2075;51.062;6.920;2023-01-29T00:19:08;-11667.00;;;-144.48;100.00
4123;BME280;2075;51.062;6.920;2023-01-29T00:21:53;-11667.00;;;-144.48;100.00
4123;BME280;2075;51.062;6.920;2023-01-29T00:24:39;-11667.00;;;-144.48;100.00
4123;BME280;2075;51.062;6.920;2023-01-29T00:27:24;-11667.00;;;-144.48;100.00
4123;BME280;2075;51.062;6.920;2023-01-29T00:30:11;-11667.00;;;-144.48;100.00
4123;BME280;2075;51.062;6.920;2023-01-29T00:32:57;-11667.00;;;-144.48;100.00
4123;BME280;2075;51.062;6.920;2023-01-29T00:35:46;-11667.00;;;-144.48;100.00
4123;BME280;2075;51.062;6.920;2023-01-29T00:38:31;-11667.00;;;-144.48;100.00
4123;BME280;2075;51.062;6.920;2023-01-29T00:41:17;-11667.00;;;-144.48;100.00
4123;BME280;2075;51.062;6.920;2023-01-29T00:44:20;-11667.00;;;-144.48;100.00
4123;BME280;2075;51.062;6.920;2023-01-29T00:47:24;-11667.00;;;-144.48;100.00
4123;BME280;2075;51.062;6.920;2023-01-29T00:50:18;-11667.00;;;-144.48;100.00
4123;BME280;2075;51.062;6.920;2023-01-29T00:53:04;-11667.00;;;-144.48;100.00
4123;BME280;2075;51.062;6.920;2023-01-29T00:55:50;-11667.00;;;-144.48;100.00
4123;BME280;2075;51.062;6.920;2023-01-29T00:58:35;-11667.00;;;-144.48;100.00
4123;BME280;2075;51.062;6.920;2023-01-29T01:01:21;-11667.00;;;-144.48;100.00
4123;BME280;2075;51.062;6.920;2023-01-29T01:04:21;-11667.00;;;-144.48;100.00
4123;BME280;2075;51.062;6.920;2023-01-29T01:07:07;-11667.00;;;-144.48;100.00
4123;BME280;2075;51.062;6.920;2023-01-29T01:09:53;-11667.00;;;-144.48;100.00
4123;BME280;2075;51.062;6.920;2023-01-29T01:12:55;-11667.00;;;-144.48;100.00
4123;BME280;2075;51.062;6.920;2023-01-29T01:15:41;-11667.00;;;-144.48;100.00
4123;BME280;2075;51.062;6.920;2023-01-29T01:18:28;-11667.00;;;-144.48;100.00
4123;BME280;2075;51.062;6.920;2023-01-29T01:21:14;-11667.00;;;-144.48;100.00
4123;BME280;2075;51.062;6.920;2023-01-29T01:23:59;-11667.00;;;-144.48;100.00
4123;BME280;2075;51.062;6.920;2023-01-29T01:26:46;-11667.00;;;-144.48;100.00
4123;BME280;2075;51.062;6.920;2023-01-29T01:29:32;-11667.00;;;-144.48;100.00
4123;BME280;2075;51.062;6.920;2023-01-29T01:32:17;-11667.00;;;-144.48;100.00
4123;BME280;2075;51.062;6.920;2023-01-29T01:35:03;-11667.00;;;-144.48;100.00
4123;BME280;2075;51.062;6.920;2023-01-29T01:37:49;-11667.00;;;-144.48;100.00
4123;BME280;2075;51.062;6.920;2023-01-29T01:40:34;-11667.00;;;-144.48;100.00
4123;BME280;2075;51.062;6.920;2023-01-29T01:43:21;-11667.00;;;-144.48;100.00
4123;BME280;2075;51.062;6.920;2023-01-29T01:46:06;-11667.00;;;-144.48;100.00
4123;BME280;2075;51.062;6.920;2023-01-29T01:48:55;-11667.00;;;-144.48;100.00
4123;BME280;2075;51.062;6.920;2023-01-29T01:51:44;-11667.00;;;-144.48;100.00
4123;BME280;2075;51.062;6.920;2023-01-29T01:54:31;-11667.00;;;-144.48;100.00
4123;BME280;2075;51.062;6.920;2023-01-29T01:57:20;-11667.00;;;-144.48;100.00
4123;BME280;2075;51.062;6.920;2023-01-29T02:00:14;-11667.00;;;-144.48;100.00
4123;BME280;2075;51.062;6.920;2023-01-29T02:03:01;-11667.00;;;-144.48;100.00
4123;BME280;2075;51.062;6.920;2023-01-29T02:06:06;-11667.00;;;-144.48;100.00
4123;BME280;2075;51.062;6.920;2023-01-29T02:09:13;-11667.00;;;-144.48;100.00
4123;BME280;2075;51.062;6.920;2023-01-29T02:12:21;-11667.00;;;-144.48;100.00
4123;BME280;2075;51.062;6.920;2023-01-29T02:15:08;-11667.00;;;-144.48;100.00
4123;BME280;2075;51.062;6.920;2023-01-29T02:17:54;-11665.53;;;-144.48;100.00
4123;BME280;2075;51.062;6.920;2023-01-29T02:20:41;-11667.00;;;-144.48;100.00
4123;BME280;2075;51.062;6.920;2023-01-29T02:23:59;-11667.00;;;-144.48;100.00
4123;BME280;2075;51.062;6.920;2023-01-29T02:26:57;-11667.00;;;-144.48;100.00
4123;BME280;2075;51.062;6.920;2023-01-29T02:29:54;-11667.00;;;-144.48;100.00
4123;BME280;2075;51.062;6.920;2023-01-29T02:32:46;-11667.00;;;-144.48;100.00
4123;BME280;2075;51.062;6.920;2023-01-29T02:35:45;-11667.00;;;-144.48;100.00
4123;BME280;2075;51.062;6.920;2023-01-29T02:38:39;-11667.00;;;-144.48;100.00
4123;BME280;2075;51.062;6.920;2023-01-29T02:41:36;-11667.00;;;-144.48;100.00
4123;BME280;2075;51.062;6.920;2023-01-29T02:44:27;-11667.00;;;-144.48;100.00
4123;BME280;2075;51.062;6.920;2023-01-29T02:47:21;-11667.00;;;-144.48;100.00
4123;BME280;2075;51.062;6.920;2023-01-29T02:50:17;-11667.00;;;-144.48;100.00
4123;BME280;2075;51.062;6.920;2023-01-29T02:53:08;-11667.00;;;-144.48;100.00
4123;BME280;2075;51.062;6.920;2023-01-29T02:55:59;-11667.00;;;-144.48;100.00
4123;BME280;2075;51.062;6.920;2023-01-29T02:58:51;-11667.00;;;-144.48;100.00
4123;BME280;2075;51.062;6.920;2023-01-29T03:01:41;-11667.00;;;-144.48;100.00
4123;BME280;2075;51.062;6.920;2023-01-29T03:04:35;-11667.00;;;-144.48;100.00
4123;BME280;2075;51.062;6.920;2023-01-29T03:07:27;-11667.00;;;-144.48;100.00
4123;BME280;2075;51.062;6.920;2023-01-29T03:10:32;-11667.00;;;-144.48;100.00
4123;BME280;2075;51.062;6.920;2023-01-29T03:13:20;-11667.00;;;-144.48;100.00
4123;BME280;2075;51.062;6.920;2023-01-29T03:16:19;-11667.00;;;-144.48;100.00
4123;BME280;2075;51.062;6.920;2023-01-29T03:19:08;-11667.00;;;-144.48;100.00
4123;BME280;2075;51.062;6.920;2023-01-29T03:21:59;-11667.00;;;-144.48;100.00
4123;BME280;2075;51.062;6.920;2023-01-29T03:24:49;-11667.00;;;-144.48;100.00
4123;BME280;2075;51.062;6.920;2023-01-29T03:27:58;-11667.00;;;-144.48;100.00
4123;BME280;2075;51.062;6.920;2023-01-29T03:31:05;-11667.00;;;-144.48;100.00
4123;BME280;2075;51.062;6.920;2023-01-29T03:34:15;-11667.00;;;-144.48;100.00
4123;BME280;2075;51.062;6.920;2023-01-29T03:37:12;-11667.00;;;-144.48;100.00
4123;BME280;2075;51.062;6.920;2023-01-29T03:40:03;-11667.00;;;-144.48;100.00
4123;BME280;2075;51.062;6.920;2023-01-29T03:42:58;-11667.00;;;-144.48;100.00
4123;BME280;2075;51.062;6.920;2023-01-29T03:45:59;-11667.00;;;-144.48;100.00
4123;BME280;2075;51.062;6.920;2023-01-29T03:48:53;-11667.00;;;-144.48;100.00
4123;BME280;2075;51.062;6.920;2023-01-29T03:51:48;-11667.00;;;-144.48;100.00
4123;BME280;2075;51.062;6.920;2023-01-29T03:54:45;-11667.00;;;-144.48;100.00
4123;BME280;2075;51.062;6.920;2023-01-29T03:57:38;-11667.00;;;-144.48;100.00
4123;BME280;2075;51.062;6.920;2023-01-29T04:00:30;-11667.00;;;-144.48;100.00
4123;BME280;2075;51.062;6.920;2023-01-29T04:03:25;-11667.00;;;-144.48;100.00
4123;BME280;2075;51.062;6.920;2023-01-29T04:06:17;-11667.00;;;-144.48;100.00
4123;BME280;2075;51.062;6.920;2023-01-29T04:09:17;-11667.00;;;-144.48;100.00
4123;BME280;2075;51.062;6.920;2023-01-29T04:12:09;-11667.00;;;-144.48;100.00
4123;BME280;2075;51.062;6.920;2023-01-29T04:15:00;-11667.00;;;-144.48;100.00
4123;BME280;2075;51.062;6.920;2023-01-29T04:17:49;-11667.00;;;-144.48;100.00
4123;BME280;2075;51.062;6.920;2023-01-29T04:20:42;-11667.00;;;-144.48;100.00
4123;BME280;2075;51.062;6.920;2023-01-29T04:23:28;-11667.00;;;-144.48;100.00
4123;BME280;2075;51.062;6.920;2023-01-29T04:26:36;-11667.00;;;-144.48;100.00
4123;BME280;2075;51.062;6.920;2023-01-29T04:29:37;-11667.00;;;-144.48;100.00
4123;BME280;2075;51.062;6.920;2023-01-29T04:32:31;-11667.00;;;-144.48;100.00
4123;BME280;2075;51.062;6.920;2023-01-29T04:35:25;-11667.00;;;-144.48;100.00
4123;BME280;2075;51.062;6.920;2023-01-29T04:38:24;-11667.00;;;-144.48;100.00
4123;BME280;2075;51.062;6.920;2023-01-29T04:41:20;-11667.00;;;-144.48;100.00
4123;BME280;2075;51.062;6.920;2023-01-29T04:44:14;-11667.00;;;-144.48;100.00
4123;BME280;2075;51.062;6.920;2023-01-29T04:47:08;-11667.00;;;-144.48;100.00
4123;BME280;2075;51.062;6.920;2023-01-29T04:50:07;-11667.00;;;-144.48;100.00
4123;BME280;2075;51.062;6.920;2023-01-29T04:52:59;-11667.00;;;-144.48;100.00
4123;BME280;2075;51.062;6.920;2023-01-29T04:55:50;-11667.00;;;-144.48;100.00
4123;BME280;2075;51.062;6.920;2023-01-29T04:58:39;-11667.00;;;-144.48;100.00
4123;BME280;2075;51.062;6.920;2023-01-29T05:01:27;-11667.00;;;-144.48;100.00
4123;BME280;2075;51.062;6.920;2023-01-29T05:04:18;-11667.00;;;-144.48;100.00
4123;BME280;2075;51.062;6.920;2023-01-29T05:07:06;-11667.00;;;-144.48;100.00
4123;BME280;2075;51.062;6.920;2023-01-29T05:09:53;-11667.00;;;-144.48;100.00
4123;BME280;2075;51.062;6.920;2023-01-29T05:12:42;-11667.00;;;-144.48;100.00
4123;BME280;2075;51.062;6.920;2023-01-29T05:15:34;-11667.00;;;-144.48;100.00
4123;BME280;2075;51.062;6.920;2023-01-29T05:18:21;-11667.00;;;-144.48;100.00
4123;BME280;2075;51.062;6.920;2023-01-29T05:21:08;-11667.00;;;-144.48;100.00
4123;BME280;2075;51.062;6.920;2023-01-29T05:24:06;-11667.00;;;-144.48;100.00
4123;BME280;2075;51.062;6.920;2023-01-29T05:26:53;-11667.00;;;-144.48;100.00
4123;BME280;2075;51.062;6.920;2023-01-29T05:29:56;-11667.00;;;-144.48;100.00
4123;BME280;2075;51.062;6.920;2023-01-29T05:32:42;-11667.00;;;-144.48;100.00
4123;BME280;2075;51.062;6.920;2023-01-29T05:35:27;-11667.00;;;-144.48;100.00
4123;BME280;2075;51.062;6.920;2023-01-29T05:38:15;-11667.00;;;-144.48;100.00
4123;BME280;2075;51.062;6.920;2023-01-29T05:41:00;-11667.00;;;-144.48;100.00
4123;BME280;2075;51.062;6.920;2023-01-29T05:43:46;-11667.00;;;-144.48;100.00
4123;BME280;2075;51.062;6.920;2023-01-29T05:46:31;-11667.00;;;-144.48;100.00
4123;BME280;2075;51.062;6.920;2023-01-29T05:49:17;-11667.00;;;-144.48;100.00
4123;BME280;2075;51.062;6.920;2023-01-29T05:52:03;-11667.00;;;-144.48;100.00
4123;BME280;2075;51.062;6.920;2023-01-29T05:54:50;-11665.53;;;-144.48;100.00
4123;BME280;2075;51.062;6.920;2023-01-29T05:57:36;-11665.53;;;-144.48;100.00
4123;BME280;2075;51.062;6.920;2023-01-29T06:00:21;-11413.53;;;-144.48;100.00
4123;BME280;2075;51.062;6.920;2023-01-29T06:03:06;-11413.53;;;-144.48;100.00
4123;BME280;2075;51.062;6.920;2023-01-29T06:05:51;-11413.53;;;-144.48;100.00
4123;BME280;2075;51.062;6.920;2023-01-29T06:08:37;-11413.53;;;-144.48;100.00
4123;BME280;2075;51.062;6.920;2023-01-29T06:11:24;-11665.53;;;-144.48;100.00
4123;BME280;2075;51.062;6.920;2023-01-29T06:14:09;-11665.53;;;-144.48;100.00
4123;BME280;2075;51.062;6.920;2023-01-29T06:16:55;-11665.53;;;-144.48;100.00
4123;BME280;2075;51.062;6.920;2023-01-29T06:19:40;-11667.00;;;-144.48;100.00
4123;BME280;2075;51.062;6.920;2023-01-29T06:22:25;-11667.00;;;-144.48;100.00
4123;BME280;2075;51.062;6.920;2023-01-29T06:25:11;-11667.00;;;-144.48;100.00
4123;BME280;2075;51.062;6.920;2023-01-29T06:27:57;-11667.00;;;-144.48;100.00
4123;BME280;2075;51.062;6.920;2023-01-29T06:30:43;-11667.00;;;-144.48;100.00
4123;BME280;2075;51.062;6.920;2023-01-29T06:33:28;-11667.00;;;-144.48;100.00
4123;BME280;2075;51.062;6.920;2023-01-29T06:36:13;-11667.00;;;-144.48;100.00
4123;BME280;2075;51.062;6.920;2023-01-29T06:38:59;-11667.00;;;-144.48;100.00
4123;BME280;2075;51.062;6.920;2023-01-29T06:41:44;-11667.00;;;-144.48;100.00
4123;BME280;2075;51.062;6.920;2023-01-29T06:44:31;-11667.00;;;-144.48;100.00
4123;BME280;2075;51.062;6.920;2023-01-29T06:47:16;-11667.00;;;-144.48;100.00
4123;BME280;2075;51.062;6.920;2023-01-29T06:50:02;-11667.00;;;-144.48;100.00
4123;BME280;2075;51.062;6.920;2023-01-29T06:52:47;-11667.00;;;-144.48;100.00
4123;BME280;2075;51.062;6.920;2023-01-29T06:55:33;-11667.00;;;-144.48;100.00
4123;BME280;2075;51.062;6.920;2023-01-29T06:58:18;-11667.00;;;-144.48;100.00
4123;BME280;2075;51.062;6.920;2023-01-29T07:01:07;-11667.00;;;-144.48;100.00
4123;BME280;2075;51.062;6.920;2023-01-29T07:03:53;-11667.00;;;-144.48;100.00
4123;BME280;2075;51.062;6.920;2023-01-29T07:06:38;-11665.53;;;-144.48;100.00
4123;BME280;2075;51.062;6.920;2023-01-29T07:09:24;-11161.53;;;-144.48;100.00
4123;BME280;2075;51.062;6.920;2023-01-29T07:12:09;-10405.38;;;-144.48;100.00
4123;BME280;2075;51.062;6.920;2023-01-29T07:14:54;-9144.72;;;-144.48;100.00
4123;BME280;2075;51.062;6.920;2023-01-29T07:17:41;-8135.88;;;-144.48;100.00
4123;BME280;2075;51.062;6.920;2023-01-29T07:20:27;-6621.97;;;-144.48;100.00
4123;BME280;2075;51.062;6.920;2023-01-29T07:23:14;-4854.91;;;-144.48;100.00
4123;BME280;2075;51.062;6.920;2023-01-29T07:26:01;-3844.69;;;-144.48;100.00
4123;BME280;2075;51.062;6.920;2023-01-29T07:28:46;-2581.53;;;-144.48;100.00
4123;BME280;2075;51.062;6.920;2023-01-29T07:31:32;-2076.13;;;-144.48;100.00
4123;BME280;2075;51.062;6.920;2023-01-29T07:34:19;-1065.06;;;-144.48;100.00
4123;BME280;2075;51.062;6.920;2023-01-29T07:37:04;-306.56;;;-144.48;100.00
4123;BME280;2075;51.062;6.920;2023-01-29T07:39:50;199.19;;;-144.48;100.00
4123;BME280;2075;51.062;6.920;2023-01-29T07:42:36;957.97;;;-144.48;100.00
4123;BME280;2075;51.062;6.920;2023-01-29T07:45:21;2982.25;;;-144.48;100.00
4123;BME280;2075;51.062;6.920;2023-01-29T07:48:10;5261.06;;;-144.48;100.00
4123;BME280;2075;51.062;6.920;2023-01-29T07:50:57;6781.16;;;-144.48;100.00
4123;BME280;2075;51.062;6.920;2023-01-29T07:53:42;9062.59;;;-144.48;100.00
4123;BME280;2075;51.062;6.920;2023-01-29T07:56:27;10584.44;;;-144.48;100.00
4123;BME280;2075;51.062;6.920;2023-01-29T07:59:13;12614.66;;;-144.48;100.00
4123;BME280;2075;51.062;6.920;2023-01-29T08:01:58;14392.13;;;-144.48;100.00
4123;BME280;2075;51.062;6.920;2023-01-29T08:04:44;16424.66;;;-144.48;100.00
4123;BME280;2075;51.062;6.920;2023-01-29T08:07:30;18458.47;;;-144.48;100.00
4123;BME280;2075;51.062;6.920;2023-01-29T08:10:16;19984.66;;;-144.48;100.00
4123;BME280;2075;51.062;6.920;2023-01-29T08:13:05;21766.06;;;-144.48;100.00
4123;BME280;2075;51.062;6.920;2023-01-29T08:15:50;23803.16;;;-144.48;100.00
4123;BME280;2075;51.062;6.920;2023-01-29T08:18:36;25331.78;;;-144.48;100.00
4123;BME280;2075;51.062;6.920;2023-01-29T08:21:21;23293.75;;;-144.48;100.00
4123;BME280;2075;51.062;6.920;2023-01-29T08:24:08;22529.81;;;-144.48;100.00
4123;BME280;2075;51.062;6.920;2023-01-29T08:26:56;20493.53;;;-144.48;100.00
4123;BME280;2075;51.062;6.920;2023-01-29T08:29:42;20493.53;;;-144.48;100.00
4123;BME280;2075;51.062;6.920;2023-01-29T08:32:27;23039.09;;;-144.48;100.00
4123;BME280;2075;51.062;6.920;2023-01-29T08:35:13;22275.22;;;-144.48;100.00
4123;BME280;2075;51.062;6.920;2023-01-29T08:37:59;19475.84;;;-144.48;100.00
4123;BME280;2075;51.062;6.920;2023-01-29T08:40:47;22275.22;;;-144.48;100.00
4123;BME280;2075;51.062;6.920;2023-01-29T08:43:34;24057.88;;;-144.48;100.00
4123;BME280;2075;51.062;6.920;2023-01-29T08:46:20;24057.88;;;-144.48;100.00
4123;BME280;2075;51.062;6.920;2023-01-29T08:49:05;24822.16;;;-144.48;100.00
4123;BME280;2075;51.062;6.920;2023-01-29T08:51:51;28646.22;;;-144.48;100.00
4123;BME280;2075;51.062;6.920;2023-01-29T08:54:36;30687.50;;;-144.48;100.00
4123;BME280;2075;51.062;6.920;2023-01-29T08:57:23;33751.78;;;-144.48;100.00
4123;BME280;2075;51.062;6.920;2023-01-29T09:00:10;37074.59;;;-144.48;100.00
4123;BME280;2075;51.062;6.920;2023-01-29T09:02:55;39888.75;;;-144.48;100.00
4123;BME280;2075;51.062;6.920;2023-01-29T09:05:42;42961.47;;;-144.48;100.00
4123;BME280;2075;51.062;6.920;2023-01-29T09:08:29;45780.56;;;-144.48;100.00
4123;BME280;2075;51.062;6.920;2023-01-29T09:11:15;44242.59;;;-144.48;100.00
4123;BME280;2075;51.062;6.920;2023-01-29T09:14:02;48345.44;;;-144.48;100.00
4123;BME280;2075;51.062;6.920;2023-01-29T09:16:47;51425.88;;;-144.48;100.00
4123;BME280;2075;51.062;6.920;2023-01-29T09:19:33;52967.16;;;-144.48;100.00
4123;BME280;2075;51.062;6.920;2023-01-29T09:22:18;60169.00;;;-144.48;100.00
4123;BME280;2075;51.062;6.920;2023-01-29T09:25:04;60684.00;;;-144.48;100.00
4123;BME280;2075;51.062;6.920;2023-01-29T09:27:49;59396.66;;;-144.48;100.00
4123;BME280;2075;51.062;6.920;2023-01-29T09:30:36;55537.47;;;-144.48;100.00
4123;BME280;2075;51.062;6.920;2023-01-29T09:33:22;57595.16;;;-144.48;100.00
4123;BME280;2075;51.062;6.920;2023-01-29T09:36:09;63517.94;;;-144.48;100.00
4123;BME280;2075;51.062;6.920;2023-01-29T09:38:54;58367.09;;;-144.48;100.00
4123;BME280;2075;51.062;6.920;2023-01-29T09:41:47;63775.66;;;-144.48;100.00
4123;BME280;2075;51.062;6.920;2023-01-29T09:44:47;73218.94;;;-144.48;100.00
4123;BME280;2075;51.062;6.920;2023-01-29T09:47:38;75523.72;;;-144.48;100.00
4123;BME280;2075;51.062;6.920;2023-01-29T09:50:28;79759.59;;;-144.48;100.00
4123;BME280;2075;51.062;6.920;2023-01-29T09:53:18;89088.78;;;-144.48;100.00
4123;BME280;2075;51.062;6.920;2023-01-29T09:56:11;93605.41;;;-144.48;100.00
4123;BME280;2075;51.062;6.920;2023-01-29T09:58:58;94164.06;;;-144.48;100.00
4123;BME280;2075;51.062;6.920;2023-01-29T10:01:50;94448.50;;;-144.48;100.00
4123;BME280;2075;51.062;6.920;2023-01-29T10:04:54;94877.22;;;-144.48;100.00
4123;BME280;2075;51.062;6.920;2023-01-29T10:11:03;94917.88;;;-144.48;100.00
4123;BME280;2075;51.062;6.920;2023-01-29T10:13:59;94980.84;;;-144.48;97.21
4123;BME280;2075;51.062;6.920;2023-01-29T10:16:58;94958.50;;;-144.48;93.69
4123;BME280;2075;51.062;6.920;2023-01-29T10:20:03;95033.69;;;-144.48;91.52
4123;BME280;2075;51.062;6.920;2023-01-29T10:23:02;95060.09;;;-144.48;91.50
4123;BME280;2075;51.062;6.920;2023-01-29T10:25:52;95086.53;;;-144.48;91.08
4123;BME280;2075;51.062;6.920;2023-01-29T10:28:40;94783.75;;;-144.48;91.50
4123;BME280;2075;51.062;6.920;2023-01-29T10:31:30;95080.44;;;-144.48;91.77
4123;BME280;2075;51.062;6.920;2023-01-29T10:34:22;95159.69;;;-144.48;92.04
4123;BME280;2075;51.062;6.920;2023-01-29T10:37:15;95015.41;;;-144.48;92.90
4123;BME280;2075;51.062;6.920;2023-01-29T10:43:18;95098.72;;;-144.48;89.44
4123;BME280;2075;51.062;6.920;2023-01-29T10:46:15;95114.97;;;-144.48;90.59
4123;BME280;2075;51.062;6.920;2023-01-29T10:49:16;95102.78;;;-144.48;90.87
4123;BME280;2075;51.062;6.920;2023-01-29T10:52:13;95131.22;;;-144.48;91.39
4123;BME280;2075;51.062;6.920;2023-01-29T10:55:14;95064.16;;;-144.48;92.37
4123;BME280;2075;51.062;6.920;2023-01-29T10:58:12;95043.84;;;-144.48;91.46
4123;BME280;2075;51.062;6.920;2023-01-29T11:01:01;95054.00;;;-144.48;91.15
4123;BME280;2075;51.062;6.920;2023-01-29T11:03:55;95096.69;;;-144.48;90.64
4123;BME280;2075;51.062;6.920;2023-01-29T11:06:41;95108.88;;;-144.48;90.43
4123;BME280;2075;51.062;6.920;2023-01-29T11:09:31;95066.19;;;-144.48;90.58
4123;BME280;2075;51.062;6.920;2023-01-29T11:12:21;95108.88;;;-144.48;89.47
4123;BME280;2075;51.062;6.920;2023-01-29T11:15:17;95117.00;;;-144.48;89.36
4123;BME280;2075;51.062;6.920;2023-01-29T11:18:05;95106.84;;;-144.48;89.29
4123;BME280;2075;51.062;6.920;2023-01-29T11:21:00;95013.38;;;-144.48;89.24
4123;BME280;2075;51.062;6.920;2023-01-29T11:23:46;95114.97;;;-144.48;88.44
4123;BME280;2075;51.062;6.920;2023-01-29T11:26:34;95135.28;;;-144.48;87.89
4123;BME280;2075;51.062;6.920;2023-01-29T11:29:37;95080.44;;;-144.48;89.01
4123;BME280;2075;51.062;6.920;2023-01-29T11:32:28;95112.94;;;-144.48;88.02
4123;BME280;2075;51.062;6.920;2023-01-29T11:35:22;95117.00;;;-144.48;88.97
4123;BME280;2075;51.062;6.920;2023-01-29T11:38:20;95084.50;;;-144.48;89.56
4123;BME280;2075;51.062;6.920;2023-01-29T11:41:14;95123.09;;;-144.48;88.92
4123;BME280;2075;51.062;6.920;2023-01-29T11:44:01;95082.47;;;-144.48;87.65
4123;BME280;2075;51.062;6.920;2023-01-29T11:47:11;95119.03;;;-144.48;88.13
4123;BME280;2075;51.062;6.920;2023-01-29T11:49:58;95127.16;;;-144.48;87.78
4123;BME280;2075;51.062;6.920;2023-01-29T11:52:45;95114.97;;;-144.48;87.76
4123;BME280;2075;51.062;6.920;2023-01-29T11:55:32;95094.66;;;-144.48;88.68
4123;BME280;2075;51.062;6.920;2023-01-29T11:58:24;95135.28;;;-144.48;89.16
4123;BME280;2075;51.062;6.920;2023-01-29T12:01:12;95125.13;;;-144.48;89.24
4123;BME280;2075;51.062;6.920;2023-01-29T12:04:01;95123.09;;;-144.48;88.94
4123;BME280;2075;51.062;6.920;2023-01-29T12:06:49;95141.38;;;-144.48;87.98
4123;BME280;2075;51.062;6.920;2023-01-29T12:09:37;95106.84;;;-144.48;88.76
4123;BME280;2075;51.062;6.920;2023-01-29T12:12:35;95131.22;;;-144.48;86.81
4123;BME280;2075;51.062;6.920;2023-01-29T12:15:22;95139.34;;;-144.48;86.61
4123;BME280;2075;51.062;6.920;2023-01-29T12:18:14;95145.47;;;-144.48;85.13
4123;BME280;2075;51.062;6.920;2023-01-29T12:21:11;95151.56;;;-144.48;84.80
4123;BME280;2075;51.062;6.920;2023-01-29T12:24:03;95153.59;;;-144.48;84.86
4123;BME280;2075;51.062;6.920;2023-01-29T12:26:54;95070.25;;;-144.48;85.44
4123;BME280;2075;51.062;6.920;2023-01-29T12:29:46;95151.56;;;-144.48;84.96
4123;BME280;2075;51.062;6.920;2023-01-29T12:32:39;95196.25;;;-144.48;85.21
4123;BME280;2075;51.062;6.920;2023-01-29T12:35:30;95137.31;;;-144.48;85.95
4123;BME280;2075;51.062;6.920;2023-01-29T12:38:20;95133.25;;;-144.48;85.42
4123;BME280;2075;51.062;6.920;2023-01-29T12:41:22;95141.38;;;-144.48;84.33
4123;BME280;2075;51.062;6.920;2023-01-29T12:44:14;95133.25;;;-144.48;84.82
4123;BME280;2075;51.062;6.920;2023-01-29T12:47:04;95137.31;;;-144.48;84.21
4123;BME280;2075;51.062;6.920;2023-01-29T12:49:54;95159.69;;;-144.48;84.10
4123;BME280;2075;51.062;6.920;2023-01-29T12:52:42;95147.50;;;-144.48;84.04
4123;BME280;2075;51.062;6.920;2023-01-29T12:55:33;95119.03;;;-144.48;83.60
4123;BME280;2075;51.062;6.920;2023-01-29T12:58:22;95068.22;;;-144.48;83.12
4123;BME280;2075;51.062;6.920;2023-01-29T13:01:14;95123.09;;;-144.48;81.73
4123;BME280;2075;51.062;6.920;2023-01-29T13:04:03;95121.06;;;-144.48;82.08
4123;BME280;2075;51.062;6.920;2023-01-29T13:06:55;95151.56;;;-144.48;81.83
4123;BME280;2075;51.062;6.920;2023-01-29T13:09:45;95147.50;;;-144.48;82.51
4123;BME280;2075;51.062;6.920;2023-01-29T13:12:35;95145.47;;;-144.48;82.76
4123;BME280;2075;51.062;6.920;2023-01-29T13:15:23;95151.56;;;-144.48;83.12
4123;BME280;2075;51.062;6.920;2023-01-29T13:18:28;95005.25;;;-144.48;83.86
4123;BME280;2075;51.062;6.920;2023-01-29T13:21:18;95123.09;;;-144.48;82.95
4123;BME280;2075;51.062;6.920;2023-01-29T13:24:11;95098.72;;;-144.48;83.35
4123;BME280;2075;51.062;6.920;2023-01-29T13:26:58;95186.09;;;-144.48;82.14
4123;BME280;2075;51.062;6.920;2023-01-29T13:29:45;95125.13;;;-144.48;81.07
4123;BME280;2075;51.062;6.920;2023-01-29T13:32:34;95054.00;;;-144.48;81.33
4123;BME280;2075;51.062;6.920;2023-01-29T13:35:21;95159.69;;;-144.48;81.65
4123;BME280;2075;51.062;6.920;2023-01-29T13:38:22;95157.66;;;-144.48;82.28
4123;BME280;2075;51.062;6.920;2023-01-29T13:41:10;95139.34;;;-144.48;82.60
4123;BME280;2075;51.062;6.920;2023-01-29T13:43:55;95123.09;;;-144.48;83.33
4123;BME280;2075;51.062;6.920;2023-01-29T13:46:47;95119.03;;;-144.48;82.86
4123;BME280;2075;51.062;6.920;2023-01-29T13:49:36;95141.38;;;-144.48;83.22
4123;BME280;2075;51.062;6.920;2023-01-29T13:52:32;95159.69;;;-144.48;84.05
4123;BME280;2075;51.062;6.920;2023-01-29T13:55:22;95545.81;;;-144.48;83.36
4123;BME280;2075;51.062;6.920;2023-01-29T13:58:15;95114.97;;;-144.48;83.74
4123;BME280;2075;51.062;6.920;2023-01-29T14:01:04;95129.19;;;-144.48;83.46
4123;BME280;2075;51.062;6.920;2023-01-29T14:03:52;95147.50;;;-144.48;83.86
4123;BME280;2075;51.062;6.920;2023-01-29T14:06:47;95129.19;;;-144.48;84.38
4123;BME280;2075;51.062;6.920;2023-01-29T14:10:00;95123.09;;;-144.48;84.59
4123;BME280;2075;51.062;6.920;2023-01-29T14:12:50;95041.81;;;-144.48;84.74
4123;BME280;2075;51.062;6.920;2023-01-29T14:15:37;95147.50;;;-144.48;85.63
4123;BME280;2075;51.062;6.920;2023-01-29T14:18:24;95119.03;;;-144.48;85.94
4123;BME280;2075;51.062;6.920;2023-01-29T14:21:20;95155.63;;;-144.48;85.15
4123;BME280;2075;51.062;6.920;2023-01-29T14:24:14;95127.16;;;-144.48;85.40
4123;BME280;2075;51.062;6.920;2023-01-29T14:27:00;95151.56;;;-144.48;86.15
4123;BME280;2075;51.062;6.920;2023-01-29T14:29:46;95119.03;;;-144.48;86.06
4123;BME280;2075;51.062;6.920;2023-01-29T14:32:38;95121.06;;;-144.48;85.48
4123;BME280;2075;51.062;6.920;2023-01-29T14:35:25;95102.78;;;-144.48;85.78
4123;BME280;2075;51.062;6.920;2023-01-29T14:38:17;95165.78;;;-144.48;84.42
4123;BME280;2075;51.062;6.920;2023-01-29T14:41:06;95074.31;;;-144.48;85.52
4123;BME280;2075;51.062;6.920;2023-01-29T14:47:17;95106.84;;;-144.48;85.50
4123;BME280;2075;51.062;6.920;2023-01-29T14:53:55;95108.88;;;-144.48;85.51
4123;BME280;2075;51.062;6.920;2023-01-29T14:56:47;95098.72;;;-144.48;85.86
4123;BME280;2075;51.062;6.920;2023-01-29T14:59:47;95037.75;;;-144.48;86.00
4123;BME280;2075;51.062;6.920;2023-01-29T15:02:37;95147.50;;;-144.48;86.57